createdAt,value
2023-07-03T00:01:59.580Z,99809.72
2023-07-03T00:04:48.524Z,99801.69
2023-07-03T00:07:37.607Z,99804.38
2023-07-03T00:10:27.832Z,99801.50
2023-07-03T00:13:16.703Z,99802.28
2023-07-03T00:16:06.840Z,99800.44
2023-07-03T00:18:57.257Z,99794.84
2023-07-03T00:21:46.024Z,99798.19
2023-07-03T00:24:35.106Z,99794.25
2023-07-03T00:27:25.276Z,99802.28
2023-07-03T00:30:14.586Z,99793.22
2023-07-03T00:33:03.310Z,99792.19
2023-07-03T00:35:52.336Z,99791.59
2023-07-03T00:38:41.210Z,99796.94
2023-07-03T00:41:30.005Z,99785.81
2023-07-03T00:44:22.005Z,99789.84
2023-07-03T00:47:12.990Z,99785.00
2023-07-03T00:50:01.647Z,99783.34
2023-07-03T00:52:55.762Z,99790.75
2023-07-03T00:55:44.938Z,99790.97
2023-07-03T00:58:33.951Z,99789.13
2023-07-03T01:01:35.326Z,99789.13
2023-07-03T01:04:31.792Z,99789.50
2023-07-03T01:07:24.667Z,99795.66
2023-07-03T01:10:16.668Z,99787.88
2023-07-03T01:13:09.365Z,99779.59
2023-07-03T01:16:00.499Z,99781.03
2023-07-03T01:18:55.030Z,99778.28
2023-07-03T01:21:52.432Z,99769.94
2023-07-03T01:24:46.083Z,99767.88
2023-07-03T01:27:37.984Z,99759.41
2023-07-03T01:30:29.903Z,99761.91
2023-07-03T01:33:26.396Z,99753.88
2023-07-03T01:36:15.268Z,99753.47
2023-07-03T01:39:05.538Z,99746.56
2023-07-03T01:41:56.594Z,99736.88
2023-07-03T01:44:45.336Z,99741.53
2023-07-03T01:47:34.281Z,99746.19
2023-07-03T01:50:26.150Z,99745.13
2023-07-03T01:53:28.113Z,99747.06
2023-07-03T01:56:24.520Z,99740.06
2023-07-03T01:59:16.240Z,99736.50
2023-07-03T02:02:09.863Z,99731.75
2023-07-03T02:05:05.160Z,99723.94
2023-07-03T02:07:58.939Z,99723.56
2023-07-03T02:10:48.160Z,99725.56
2023-07-03T02:13:36.975Z,99728.09
2023-07-03T02:16:30.574Z,99728.19
2023-07-03T02:19:20.347Z,99723.88
2023-07-03T02:22:09.282Z,99723.69
2023-07-03T02:24:57.990Z,99726.00
2023-07-03T02:27:46.690Z,99729.84
2023-07-03T02:30:35.617Z,99733.06
2023-07-03T02:33:25.812Z,99726.16
2023-07-03T02:36:14.540Z,99734.38
2023-07-03T02:39:05.614Z,99736.91
2023-07-03T02:41:54.423Z,99721.25
2023-07-03T02:44:43.034Z,99731.91
2023-07-03T02:47:36.559Z,99722.38
2023-07-03T02:50:26.727Z,99721.63
2023-07-03T02:53:15.542Z,99712.69
2023-07-03T02:56:04.215Z,99711.41
2023-07-03T02:58:53.023Z,99714.34
2023-07-03T03:01:41.653Z,99709.13
2023-07-03T03:04:30.278Z,99710.63
2023-07-03T03:07:20.770Z,99710.63
2023-07-03T03:10:10.495Z,99720.56
2023-07-03T03:12:59.224Z,99706.22
2023-07-03T03:15:47.930Z,99712.00
2023-07-03T03:18:37.292Z,99708.50
2023-07-03T03:21:26.619Z,99710.38
2023-07-03T03:24:16.902Z,99704.97
2023-07-03T03:27:07.780Z,99716.25
2023-07-03T03:29:56.494Z,99705.88
2023-07-03T03:32:45.965Z,99713.72
2023-07-03T03:35:34.925Z,99712.25
2023-07-03T03:38:24.085Z,99713.50
2023-07-03T03:41:15.848Z,99706.53
2023-07-03T03:44:04.629Z,99713.88
2023-07-03T03:46:55.136Z,99713.88
2023-07-03T03:49:43.957Z,99716.78
2023-07-03T03:52:32.625Z,99712.69
2023-07-03T03:55:21.479Z,99708.16
2023-07-03T03:58:12.109Z,99707.63
2023-07-03T04:01:02.126Z,99707.25
2023-07-03T04:03:54.019Z,99710.09
2023-07-03T04:06:42.994Z,99714.81
2023-07-03T04:09:31.651Z,99706.44
2023-07-03T04:12:20.427Z,99715.59
2023-07-03T04:15:11.264Z,99711.34
2023-07-03T04:18:00.016Z,99709.41
2023-07-03T04:20:49.608Z,99712.16
2023-07-03T04:23:38.307Z,99714.59
2023-07-03T04:26:27.300Z,99709.22
2023-07-03T04:29:19.038Z,99720.38
2023-07-03T04:32:09.749Z,99715.94
2023-07-03T04:35:01.858Z,99705.72
2023-07-03T04:37:51.377Z,99711.88
2023-07-03T04:40:40.216Z,99713.00
2023-07-03T04:43:31.047Z,99707.47
2023-07-03T04:46:25.097Z,99722.78
2023-07-03T04:49:15.285Z,99718.63
2023-07-03T04:52:06.079Z,99730.59
2023-07-03T04:54:54.725Z,99730.59
2023-07-03T04:57:43.423Z,99730.09
2023-07-03T05:00:32.270Z,99730.19
2023-07-03T05:03:21.047Z,99733.13
2023-07-03T05:06:11.225Z,99734.75
2023-07-03T05:09:00.025Z,99737.66
2023-07-03T05:11:50.014Z,99732.56
2023-07-03T05:14:38.695Z,99737.59
2023-07-03T05:17:27.380Z,99734.53
2023-07-03T05:20:19.270Z,99733.63
2023-07-03T05:23:09.307Z,99739.03
2023-07-03T05:25:58.007Z,99739.03
2023-07-03T05:28:46.834Z,99727.75
2023-07-03T05:31:35.493Z,99739.03
2023-07-03T05:34:24.215Z,99742.69
2023-07-03T05:37:12.832Z,99740.72
2023-07-03T05:40:04.971Z,99749.56
2023-07-03T05:42:53.722Z,99744.78
2023-07-03T05:45:43.099Z,99748.09
2023-07-03T05:48:31.756Z,99758.34
2023-07-03T05:51:20.439Z,99749.31
2023-07-03T05:54:09.064Z,99752.22
2023-07-03T05:57:03.322Z,99749.34
2023-07-03T05:59:51.986Z,99755.09
2023-07-03T06:02:40.784Z,99760.06
2023-07-03T06:05:29.766Z,99759.66
2023-07-03T06:08:18.449Z,99765.13
2023-07-03T06:11:07.061Z,99768.25
2023-07-03T06:13:58.307Z,99779.72
2023-07-03T06:16:48.132Z,99774.78
2023-07-03T06:19:36.806Z,99779.94
2023-07-03T06:22:25.659Z,99786.75
2023-07-03T06:25:14.395Z,99786.09
2023-07-03T06:28:03.295Z,99786.75
2023-07-03T06:30:55.207Z,99796.16
2023-07-03T06:33:44.107Z,99790.84
2023-07-03T06:36:35.042Z,99808.47
2023-07-03T06:39:23.759Z,99787.72
2023-07-03T06:42:12.520Z,99797.19
2023-07-03T06:45:01.172Z,99795.38
2023-07-03T06:47:51.224Z,99793.72
2023-07-03T06:50:39.848Z,99794.09
2023-07-03T06:53:28.701Z,99794.94
2023-07-03T06:56:17.420Z,99789.19
2023-07-03T06:59:06.092Z,99797.44
2023-07-03T07:01:54.808Z,99800.28
2023-07-03T07:04:46.570Z,99791.22
2023-07-03T07:07:35.350Z,99792.03
2023-07-03T07:10:25.503Z,99807.63
2023-07-03T07:13:14.999Z,99799.41
2023-07-03T07:16:03.656Z,99801.47
2023-07-03T07:18:54.497Z,99800.28
2023-07-03T07:21:54.178Z,99795.31
2023-07-03T07:24:42.893Z,99794.88
2023-07-03T07:27:31.678Z,99802.72
2023-07-03T07:30:20.366Z,99804.13
2023-07-03T07:33:09.187Z,99807.22
2023-07-03T07:35:57.931Z,99806.59
2023-07-03T07:38:47.997Z,99798.56
2023-07-03T07:41:37.516Z,99808.44
2023-07-03T07:44:28.127Z,99801.44
2023-07-03T07:47:17.189Z,99803.09
2023-07-03T07:50:07.671Z,99801.06
2023-07-03T07:52:57.637Z,99794.47
2023-07-03T07:55:50.904Z,99798.13
2023-07-03T07:58:40.140Z,99790.56
2023-07-03T08:01:29.034Z,99804.94
2023-07-03T08:04:17.855Z,99801.19
2023-07-03T08:07:07.268Z,99804.31
2023-07-03T08:09:56.620Z,99800.13
2023-07-03T08:12:47.638Z,99809.97
2023-07-03T08:15:36.659Z,99806.44
2023-07-03T08:18:27.077Z,99790.78
2023-07-03T08:21:15.886Z,99805.78
2023-07-03T08:24:05.367Z,99807.38
2023-07-03T08:26:55.578Z,99810.25
2023-07-03T08:29:45.642Z,99802.81
2023-07-03T08:32:34.439Z,99807.50
2023-07-03T08:38:15.763Z,99816.28
2023-07-03T08:41:04.601Z,99811.75
2023-07-03T08:43:59.064Z,99808.84
2023-07-03T08:47:09.857Z,99809.63
2023-07-03T08:50:06.182Z,99821.91
2023-07-03T08:52:59.440Z,99813.09
2023-07-03T08:55:54.005Z,99803.72
2023-07-03T08:58:43.096Z,99807.63
2023-07-03T09:01:37.803Z,99801.22
2023-07-03T09:04:49.634Z,99804.88
2023-07-03T09:07:43.466Z,99808.59
2023-07-03T09:10:39.733Z,99802.88
2023-07-03T09:13:35.342Z,99793.44
2023-07-03T09:16:26.081Z,99801.84
2023-07-03T09:19:22.409Z,99808.81
2023-07-03T09:22:21.408Z,99800.72
2023-07-03T09:25:18.236Z,99800.94
2023-07-03T09:28:10.435Z,99802.63
2023-07-03T09:30:59.890Z,99792.06
2023-07-03T09:33:50.327Z,99803.75
2023-07-03T09:36:44.980Z,99800.59
2023-07-03T09:39:35.091Z,99806.06
2023-07-03T09:42:26.493Z,99807.28
2023-07-03T09:45:17.635Z,99796.84
2023-07-03T09:48:16.544Z,99808.75
2023-07-03T09:51:08.716Z,99807.13
2023-07-03T09:54:00.244Z,99807.19
2023-07-03T09:56:51.160Z,99801.66
2023-07-03T09:59:39.773Z,99809.22
2023-07-03T10:08:29.524Z,99816.63
2023-07-03T10:11:27.349Z,99815.75
2023-07-03T10:14:25.329Z,99811.47
2023-07-03T10:17:15.094Z,99812.47
2023-07-03T10:20:11.054Z,99806.66
2023-07-03T10:23:03.877Z,99815.75
2023-07-03T10:25:57.242Z,99818.06
2023-07-03T10:28:49.784Z,99819.88
2023-07-03T10:31:46.308Z,99816.81
2023-07-03T10:34:40.922Z,99817.75
2023-07-03T10:37:31.365Z,99826.56
2023-07-03T10:40:24.293Z,99818.91
2023-07-03T10:43:15.380Z,99818.34
2023-07-03T10:46:09.005Z,99814.22
2023-07-03T10:49:04.190Z,99817.94
2023-07-03T10:52:02.806Z,99821.19
2023-07-03T10:54:58.136Z,99822.97
2023-07-03T10:57:54.846Z,99822.84
2023-07-03T11:00:52.701Z,99817.66
2023-07-03T11:03:56.782Z,99818.91
2023-07-03T11:07:05.646Z,99821.59
2023-07-03T11:09:59.894Z,99819.00
2023-07-03T11:12:56.828Z,99821.03
2023-07-03T11:15:52.807Z,99823.78
2023-07-03T11:25:12.532Z,99795.09
2023-07-03T11:28:11.171Z,99803.25
2023-07-03T11:31:02.506Z,99795.41
2023-07-03T11:39:52.726Z,99794.69
2023-07-03T11:45:33.457Z,99808.50
2023-07-03T11:48:35.653Z,99806.66
2023-07-03T11:51:36.844Z,99811.16
2023-07-03T11:54:29.047Z,99817.59
2023-07-03T11:57:32.077Z,99819.06
2023-07-03T12:00:23.795Z,99825.03
2023-07-03T12:03:12.924Z,99821.09
2023-07-03T12:06:03.262Z,99825.53
2023-07-03T12:08:51.917Z,99829.72
2023-07-03T12:12:14.781Z,99821.38
2023-07-03T12:15:10.479Z,99820.22
2023-07-03T12:18:04.562Z,99812.22
2023-07-03T12:20:59.707Z,99818.63
2023-07-03T12:23:52.369Z,99802.41
2023-07-03T12:26:53.253Z,99799.28
2023-07-03T12:29:49.360Z,99821.94
2023-07-03T12:32:39.149Z,99810.19
2023-07-03T12:35:29.919Z,99811.69
2023-07-03T12:38:20.507Z,99816.84
2023-07-03T12:41:10.572Z,99820.72
2023-07-03T12:44:08.186Z,99817.53
2023-07-03T12:46:58.432Z,99814.16
2023-07-03T12:49:59.918Z,99809.94
2023-07-03T12:52:58.019Z,99814.38
2023-07-03T12:55:53.123Z,99808.00
2023-07-03T12:58:43.305Z,99818.38
2023-07-03T13:01:33.544Z,99814.16
2023-07-03T13:04:29.486Z,99818.22
2023-07-03T13:07:18.386Z,99815.78
2023-07-03T13:10:13.820Z,99809.84
2023-07-03T13:13:10.308Z,99813.19
2023-07-03T13:16:00.624Z,99807.69
2023-07-03T13:19:02.516Z,99809.91
2023-07-03T13:21:53.667Z,99815.03
2023-07-03T13:24:45.760Z,99807.66
2023-07-03T13:27:35.881Z,99819.22
2023-07-03T13:30:28.669Z,99815.47
2023-07-03T13:33:30.679Z,99816.38
2023-07-03T13:36:25.680Z,99814.75
2023-07-03T13:39:16.491Z,99816.66
2023-07-03T13:42:11.469Z,99817.22
2023-07-03T13:45:01.343Z,99808.84
2023-07-03T13:47:50.029Z,99810.91
2023-07-03T13:50:40.064Z,99810.72
2023-07-03T13:53:29.005Z,99810.13
2023-07-03T13:56:18.007Z,99814.91
2023-07-03T13:59:10.398Z,99817.59
2023-07-03T14:01:59.467Z,99817.59
2023-07-03T14:04:48.182Z,99809.19
2023-07-03T14:07:38.269Z,99816.53
2023-07-03T14:10:27.207Z,99821.81
2023-07-03T14:13:15.963Z,99825.53
2023-07-03T14:16:07.865Z,99814.13
2023-07-03T14:18:56.789Z,99818.44
2023-07-03T14:21:45.491Z,99830.19
2023-07-03T14:24:36.808Z,99837.19
2023-07-03T14:27:25.928Z,99823.78
2023-07-03T14:30:16.307Z,99821.69
2023-07-03T14:33:05.201Z,99821.09
2023-07-03T14:35:54.168Z,99828.56
2023-07-03T14:38:42.863Z,99827.75
2023-07-03T14:41:32.989Z,99819.47
2023-07-03T14:44:21.684Z,99816.13
2023-07-03T14:47:13.024Z,99824.94
2023-07-03T14:50:01.718Z,99828.22
2023-07-03T14:52:56.963Z,99817.97
2023-07-03T14:55:46.502Z,99817.97
2023-07-03T14:58:36.616Z,99821.69
2023-07-03T15:01:28.083Z,99835.09
2023-07-03T15:04:17.089Z,99829.25
2023-07-03T15:07:09.291Z,99830.91
2023-07-03T15:09:58.219Z,99827.06
2023-07-03T15:12:47.330Z,99819.81
2023-07-03T15:15:37.811Z,99838.25
2023-07-03T15:18:27.231Z,99842.31
2023-07-03T15:21:15.898Z,99835.09
2023-07-03T15:24:04.675Z,99834.25
2023-07-03T15:26:53.362Z,99828.00
2023-07-03T15:29:42.249Z,99831.63
2023-07-03T15:32:32.444Z,99824.63
2023-07-03T15:35:21.681Z,99827.44
2023-07-03T15:38:10.363Z,99831.88
2023-07-03T15:41:00.979Z,99837.34
2023-07-03T15:43:49.992Z,99840.25
2023-07-03T15:46:40.569Z,99835.25
2023-07-03T15:49:32.580Z,99839.69
2023-07-03T15:52:23.330Z,99846.34
2023-07-03T15:55:12.037Z,99841.31
2023-07-03T15:58:00.659Z,99848.41
2023-07-03T16:00:58.066Z,99853.78
2023-07-03T16:03:47.587Z,99845.63
2023-07-03T16:06:38.786Z,99847.25
2023-07-03T16:09:27.637Z,99848.97
2023-07-03T16:12:16.932Z,99857.25
2023-07-03T16:15:07.629Z,99860.28
2023-07-03T16:17:56.355Z,99862.81
2023-07-03T16:20:45.098Z,99867.47
2023-07-03T16:23:36.019Z,99858.75
2023-07-03T16:26:25.789Z,99855.34
2023-07-03T16:29:14.508Z,99864.44
2023-07-03T16:32:03.332Z,99864.31
2023-07-03T16:34:52.146Z,99864.09
2023-07-03T16:37:40.902Z,99878.09
2023-07-03T16:40:32.081Z,99876.78
2023-07-03T16:43:20.678Z,99871.31
2023-07-03T16:46:11.625Z,99885.56
2023-07-03T16:49:01.237Z,99878.19
2023-07-03T16:51:49.902Z,99878.31
2023-07-03T16:54:38.749Z,99873.09
2023-07-03T16:57:28.851Z,99883.09
2023-07-03T17:00:17.731Z,99877.53
2023-07-03T17:03:07.238Z,99875.81
2023-07-03T17:05:56.262Z,99871.47
2023-07-03T17:08:44.980Z,99879.72
2023-07-03T17:11:34.172Z,99869.56
2023-07-03T17:14:25.417Z,99869.56
2023-07-03T17:17:16.127Z,99871.91
2023-07-03T17:20:06.973Z,99864.00
2023-07-03T17:22:55.706Z,99866.41
2023-07-03T17:25:44.762Z,99872.84
2023-07-03T17:28:33.746Z,99872.84
2023-07-03T17:31:26.316Z,99872.84
2023-07-03T17:34:15.696Z,99868.63
2023-07-03T17:37:04.391Z,99876.56
2023-07-03T17:39:53.032Z,99872.38
2023-07-03T17:42:41.694Z,99874.72
2023-07-03T17:45:30.474Z,99873.59
2023-07-03T17:48:20.876Z,99867.59
2023-07-03T17:51:09.750Z,99854.47
2023-07-03T17:53:58.429Z,99869.38
2023-07-03T17:56:47.150Z,99867.84
2023-07-03T17:59:35.783Z,99861.09
2023-07-03T18:02:24.478Z,99858.78
2023-07-03T18:05:14.668Z,99864.59
2023-07-03T18:08:04.037Z,99855.38
2023-07-03T18:10:53.508Z,99857.59
2023-07-03T18:13:43.071Z,99854.44
2023-07-03T18:16:31.831Z,99855.63
2023-07-03T18:19:21.042Z,99862.88
2023-07-03T18:22:11.160Z,99857.72
2023-07-03T18:25:02.955Z,99859.59
2023-07-03T18:27:52.088Z,99860.19
2023-07-03T18:30:40.775Z,99862.28
2023-07-03T18:33:29.637Z,99855.03
2023-07-03T18:36:18.349Z,99866.81
2023-07-03T18:39:08.623Z,99875.81
2023-07-03T18:41:57.259Z,99876.94
2023-07-03T18:44:46.079Z,99876.13
2023-07-03T18:47:34.817Z,99880.84
2023-07-03T18:50:23.786Z,99872.69
2023-07-03T18:53:12.463Z,99877.91
2023-07-03T18:56:02.518Z,99877.34
2023-07-03T18:58:51.187Z,99876.38
2023-07-03T19:01:41.984Z,99889.00
2023-07-03T19:04:31.476Z,99882.00
2023-07-03T19:07:20.489Z,99893.03
2023-07-03T19:10:17.779Z,99896.66
2023-07-03T19:13:09.232Z,99893.97
2023-07-03T19:15:58.862Z,99891.69
2023-07-03T19:18:48.353Z,99894.25
2023-07-03T19:21:37.155Z,99902.97
2023-07-03T19:24:25.782Z,99902.75
2023-07-03T19:27:14.448Z,99905.47
2023-07-03T19:30:04.952Z,99902.53
2023-07-03T19:32:53.937Z,99907.97
2023-07-03T19:35:43.382Z,99905.53
2023-07-03T19:38:33.121Z,99905.63
2023-07-03T19:41:21.915Z,99911.69
2023-07-03T19:44:10.738Z,99914.38
2023-07-03T19:47:00.824Z,99913.63
2023-07-03T19:49:49.510Z,99910.38
2023-07-03T19:52:38.720Z,99920.03
2023-07-03T19:55:27.978Z,99923.19
2023-07-03T19:58:17.658Z,99925.84
2023-07-03T20:01:06.441Z,99931.66
2023-07-03T20:03:56.670Z,99931.06
2023-07-03T20:06:45.411Z,99928.22
2023-07-03T20:09:34.035Z,99929.69
2023-07-03T20:12:22.857Z,99929.69
2023-07-03T20:15:12.102Z,99934.94
2023-07-03T20:18:01.044Z,99939.47
2023-07-03T20:20:51.277Z,99930.41
2023-07-03T20:23:40.020Z,99931.88
2023-07-03T20:26:28.920Z,99931.66
2023-07-03T20:29:17.606Z,99935.97
2023-07-03T20:32:08.152Z,99927.19
2023-07-03T20:34:57.047Z,99924.50
2023-07-03T20:37:47.057Z,99927.06
2023-07-03T20:40:35.988Z,99930.09
2023-07-03T20:43:24.813Z,99928.09
2023-07-03T20:46:15.979Z,99921.56
2023-07-03T20:49:04.973Z,99932.53
2023-07-03T20:51:56.609Z,99927.63
2023-07-03T20:55:05.096Z,99933.44
2023-07-03T20:57:53.813Z,99926.91
2023-07-03T21:00:42.517Z,99928.00
2023-07-03T21:03:31.206Z,99922.75
2023-07-03T21:06:21.543Z,99935.09
2023-07-03T21:09:10.742Z,99927.25
2023-07-03T21:12:00.837Z,99916.63
2023-07-03T21:14:50.516Z,99917.09
2023-07-03T21:17:39.406Z,99928.25
2023-07-03T21:20:29.326Z,99924.53
2023-07-03T21:23:17.995Z,99934.78
2023-07-03T21:26:07.281Z,99928.91
2023-07-03T21:28:57.417Z,99934.47
2023-07-03T21:31:46.159Z,99934.06
2023-07-03T21:34:34.840Z,99927.13
2023-07-03T21:37:23.487Z,99928.16
2023-07-03T21:40:13.428Z,99922.13
2023-07-03T21:43:02.079Z,99917.22
2023-07-03T21:46:02.277Z,99931.66
2023-07-03T21:48:56.831Z,99921.25
2023-07-03T21:51:45.667Z,99922.28
2023-07-03T21:54:34.304Z,99930.19
2023-07-03T21:57:22.899Z,99921.91
2023-07-03T22:00:14.282Z,99929.38
2023-07-03T22:03:04.588Z,99921.53
2023-07-03T22:05:55.248Z,99923.53
2023-07-03T22:08:44.076Z,99927.28
2023-07-03T22:11:38.002Z,99928.94
2023-07-03T22:14:26.620Z,99936.81
2023-07-03T22:17:15.338Z,99934.00
2023-07-03T22:20:09.597Z,99941.72
2023-07-03T22:22:58.362Z,99930.63
2023-07-03T22:25:48.285Z,99942.19
2023-07-03T22:28:36.892Z,99938.44
2023-07-03T22:31:27.602Z,99935.31
2023-07-03T22:34:16.461Z,99943.34
2023-07-03T22:37:07.267Z,99942.25
2023-07-03T22:39:55.963Z,99943.94
2023-07-03T22:42:44.610Z,99938.91
2023-07-03T22:45:33.591Z,99949.22
2023-07-03T22:48:22.334Z,99949.03
2023-07-03T22:51:12.244Z,99946.34
2023-07-03T22:54:02.363Z,99953.34
2023-07-03T22:56:51.259Z,99952.50
2023-07-03T22:59:39.983Z,99945.44
2023-07-03T23:02:29.552Z,99953.41
2023-07-03T23:05:18.998Z,99951.97
2023-07-03T23:08:07.778Z,99949.63
2023-07-03T23:10:57.953Z,99951.25
2023-07-03T23:13:46.595Z,99954.19
2023-07-03T23:16:35.732Z,99954.66
2023-07-03T23:19:25.729Z,99962.53
2023-07-03T23:22:14.343Z,99955.34
2023-07-03T23:25:03.031Z,99954.53
2023-07-03T23:27:53.217Z,99959.06
2023-07-03T23:30:41.952Z,99951.84
2023-07-03T23:33:31.485Z,99954.16
2023-07-03T23:36:23.857Z,99951.03
2023-07-03T23:39:13.885Z,99940.13
2023-07-03T23:42:02.535Z,99939.84
2023-07-03T23:44:52.640Z,99940.28
2023-07-03T23:47:41.319Z,99944.66
2023-07-03T23:50:30.394Z,99943.28
2023-07-03T23:53:19.060Z,99945.50
2023-07-03T23:56:10.778Z,99945.09
2023-07-03T23:59:01.449Z,99939.56
